createdAt,value
2018-02-15T00:00:16.251Z,60.90
2018-02-15T00:02:42.219Z,60.90
2018-02-15T00:05:08.200Z,60.60
2018-02-15T00:07:34.903Z,61.00
2018-02-15T00:10:00.928Z,61.00
2018-02-15T00:12:26.913Z,60.80
2018-02-15T00:14:53.651Z,60.50
2018-02-15T00:17:19.632Z,60.50
2018-02-15T00:19:45.607Z,60.40
2018-02-15T00:22:11.595Z,60.70
2018-02-15T00:24:37.568Z,60.80
2018-02-15T00:27:03.560Z,61.00
2018-02-15T00:29:30.277Z,61.40
2018-02-15T00:31:56.259Z,61.30
2018-02-15T00:34:22.232Z,61.20
2018-02-15T00:36:48.183Z,61.60
2018-02-15T00:39:14.154Z,61.50
2018-02-15T00:41:40.120Z,61.40
2018-02-15T00:44:06.087Z,61.30
2018-02-15T00:46:32.054Z,61.30
2018-02-15T00:48:58.772Z,60.50
2018-02-15T00:51:24.743Z,60.50
2018-02-15T00:53:50.707Z,60.90
2018-02-15T00:56:16.672Z,61.50
2018-02-15T00:58:42.623Z,60.60
2018-02-15T01:01:08.603Z,60.60
2018-02-15T01:03:34.576Z,60.40
2018-02-15T01:06:00.547Z,59.90
2018-02-15T01:08:27.289Z,59.90
2018-02-15T01:10:54.030Z,60.10
2018-02-15T01:13:19.997Z,60.20
2018-02-15T01:15:45.959Z,59.90
2018-02-15T01:18:11.920Z,59.80
2018-02-15T01:20:37.892Z,59.90
2018-02-15T01:23:04.592Z,59.90
2018-02-15T01:25:30.559Z,59.90
2018-02-15T01:27:57.275Z,59.60
2018-02-15T01:30:23.268Z,60.20
2018-02-15T01:32:49.979Z,59.80
2018-02-15T01:35:15.971Z,59.70
2018-02-15T01:37:41.930Z,59.90
2018-02-15T01:40:07.883Z,59.40
2018-02-15T01:42:33.835Z,59.50
2018-02-15T01:44:59.801Z,59.80
2018-02-15T01:47:26.500Z,59.70
2018-02-15T01:49:56.503Z,60.20
2018-02-15T01:52:29.553Z,59.70
2018-02-15T01:54:55.543Z,59.50
2018-02-15T01:57:21.553Z,59.10
2018-02-15T01:59:48.286Z,59.30
2018-02-15T02:02:14.215Z,59.30
2018-02-15T02:04:40.192Z,59.20
2018-02-15T02:07:06.196Z,59.50
2018-02-15T02:09:32.908Z,60.20
2018-02-15T02:11:58.871Z,59.60
2018-02-15T02:14:26.335Z,59.80
2018-02-15T02:16:52.419Z,59.80
2018-02-15T02:19:18.380Z,59.50
2018-02-15T02:21:44.347Z,59.10
2018-02-15T02:24:10.312Z,59.20
2018-02-15T02:26:37.004Z,59.00
2018-02-15T02:29:02.964Z,59.00
2018-02-15T02:31:28.956Z,59.40
2018-02-15T02:33:55.051Z,59.30
2018-02-15T02:36:21.036Z,59.50
2018-02-15T02:38:46.990Z,59.10
2018-02-15T02:41:12.961Z,59.00
2018-02-15T02:43:40.435Z,58.80
2018-02-15T02:46:06.418Z,58.80
2018-02-15T02:48:32.374Z,59.20
2018-02-15T02:50:58.471Z,59.30
2018-02-15T02:53:24.465Z,59.30
2018-02-15T02:55:50.431Z,59.50
2018-02-15T02:58:17.120Z,59.90
2018-02-15T03:00:43.087Z,59.80
2018-02-15T03:03:09.042Z,60.50
2018-02-15T03:05:35.011Z,59.70
2018-02-15T03:08:00.959Z,59.90
2018-02-15T03:10:26.938Z,59.60
2018-02-15T03:12:52.906Z,59.30
2018-02-15T03:15:18.863Z,59.40
2018-02-15T03:17:44.811Z,59.20
2018-02-15T03:20:10.770Z,59.00
2018-02-15T03:22:36.725Z,59.40
2018-02-15T03:25:03.428Z,59.10
2018-02-15T03:27:29.374Z,59.10
2018-02-15T03:29:55.361Z,58.50
2018-02-15T03:32:21.329Z,58.60
2018-02-15T03:34:47.298Z,58.70
2018-02-15T03:37:13.258Z,58.50
2018-02-15T03:39:39.235Z,58.20
2018-02-15T03:42:05.183Z,58.40
2018-02-15T03:44:31.152Z,58.20
2018-02-15T03:46:57.111Z,58.30
2018-02-15T03:49:23.075Z,58.30
2018-02-15T03:51:49.035Z,58.40
2018-02-15T03:54:14.978Z,57.90
2018-02-15T03:56:40.943Z,58.30
2018-02-15T03:59:07.647Z,57.70
2018-02-15T04:01:33.608Z,57.80
2018-02-15T04:03:59.575Z,57.70
2018-02-15T04:06:25.570Z,57.60
2018-02-15T04:08:51.533Z,57.60
2018-02-15T04:11:17.494Z,57.00
2018-02-15T04:13:43.453Z,57.00
2018-02-15T04:16:09.416Z,57.00
2018-02-15T04:18:35.376Z,57.00
2018-02-15T04:21:02.082Z,57.00
2018-02-15T04:23:28.050Z,57.00
2018-02-15T04:25:54.769Z,56.70
2018-02-15T04:28:20.722Z,56.70
2018-02-15T04:30:46.691Z,56.90
2018-02-15T04:33:12.675Z,56.80
2018-02-15T04:35:38.636Z,56.50
2018-02-15T04:38:05.322Z,56.70
2018-02-15T04:40:31.286Z,56.90
2018-02-15T04:42:57.256Z,56.60
2018-02-15T04:45:23.254Z,56.00
2018-02-15T04:47:49.206Z,55.50
2018-02-15T04:50:15.159Z,55.40
2018-02-15T04:52:41.108Z,55.30
2018-02-15T04:55:07.815Z,55.60
2018-02-15T04:57:33.762Z,55.60
2018-02-15T04:59:59.718Z,55.70
2018-02-15T05:02:25.703Z,55.80
2018-02-15T05:04:51.678Z,55.40
2018-02-15T05:07:17.627Z,55.50
2018-02-15T05:09:44.319Z,55.50
2018-02-15T05:12:10.289Z,55.40
2018-02-15T05:14:36.249Z,55.60
2018-02-15T05:17:02.959Z,56.10
2018-02-15T05:19:28.906Z,55.50
2018-02-15T05:21:54.898Z,55.50
2018-02-15T05:24:20.851Z,55.10
2018-02-15T05:26:46.812Z,55.20
2018-02-15T05:29:12.762Z,54.50
2018-02-15T05:31:38.748Z,54.20
2018-02-15T05:34:04.699Z,54.60
2018-02-15T05:36:30.699Z,54.80
2018-02-15T05:38:57.404Z,54.60
2018-02-15T05:41:23.378Z,54.60
2018-02-15T05:43:50.080Z,54.40
2018-02-15T05:46:16.050Z,54.30
2018-02-15T05:48:42.000Z,54.10
2018-02-15T05:51:08.692Z,54.80
2018-02-15T05:53:34.646Z,54.80
2018-02-15T05:56:00.603Z,55.40
2018-02-15T05:58:28.071Z,55.20
2018-02-15T06:00:54.091Z,55.20
2018-02-15T06:03:20.070Z,55.20
2018-02-15T06:05:46.778Z,55.30
2018-02-15T06:08:12.730Z,55.20
2018-02-15T06:10:38.704Z,55.00
2018-02-15T06:13:04.663Z,55.10
2018-02-15T06:15:30.638Z,54.70
2018-02-15T06:17:56.623Z,54.80
2018-02-15T06:20:23.351Z,54.90
2018-02-15T06:22:49.349Z,54.60
2018-02-15T06:25:15.325Z,54.30
2018-02-15T06:27:42.033Z,54.00
2018-02-15T06:30:08.015Z,53.90
2018-02-15T06:32:33.973Z,54.00
2018-02-15T06:34:59.942Z,54.70
2018-02-15T06:37:25.916Z,54.80
2018-02-15T06:39:52.623Z,54.40
2018-02-15T06:42:18.576Z,54.40
2018-02-15T06:44:44.529Z,54.50
2018-02-15T06:47:11.245Z,54.30
2018-02-15T06:49:37.211Z,54.20
2018-02-15T06:52:03.950Z,56.30
2018-02-15T06:54:29.896Z,56.30
2018-02-15T06:56:55.954Z,58.60
2018-02-15T06:59:21.907Z,61.80
2018-02-15T07:01:47.867Z,63.10
2018-02-15T07:04:13.895Z,65.50
2018-02-15T07:06:39.853Z,67.50
2018-02-15T07:09:05.816Z,69.20
2018-02-15T07:11:32.527Z,73.40
2018-02-15T07:13:58.495Z,73.50
2018-02-15T07:16:24.475Z,75.20
2018-02-15T07:18:50.430Z,76.60
2018-02-15T07:21:16.383Z,77.20
2018-02-15T07:23:42.373Z,78.50
2018-02-15T07:26:08.332Z,79.50
2018-02-15T07:28:34.279Z,79.60
2018-02-15T07:31:00.269Z,80.20
2018-02-15T07:33:26.239Z,80.10
2018-02-15T07:35:52.215Z,80.70
2018-02-15T07:38:18.910Z,82.10
2018-02-15T07:40:44.882Z,82.00
2018-02-15T07:43:11.578Z,82.40
2018-02-15T07:45:37.558Z,82.50
2018-02-15T07:48:03.549Z,82.40
2018-02-15T07:50:29.527Z,82.00
2018-02-15T07:52:55.509Z,82.20
2018-02-15T07:55:21.532Z,83.40
2018-02-15T07:57:48.250Z,83.20
2018-02-15T08:00:14.222Z,83.20
2018-02-15T08:02:40.926Z,82.60
2018-02-15T08:05:06.875Z,82.60
2018-02-15T08:07:32.834Z,83.60
2018-02-15T08:09:58.803Z,83.70
2018-02-15T08:12:25.530Z,83.70
2018-02-15T08:14:52.355Z,84.60
2018-02-15T08:17:18.359Z,84.50
2018-02-15T08:19:44.307Z,84.70
2018-02-15T08:22:10.278Z,85.00
2018-02-15T08:24:36.235Z,86.20
2018-02-15T08:27:02.991Z,85.10
2018-02-15T08:29:29.674Z,85.50
2018-02-15T08:31:55.655Z,85.50
2018-02-15T08:34:21.635Z,85.00
2018-02-15T08:36:47.628Z,85.30
2018-02-15T08:39:13.578Z,86.30
2018-02-15T08:41:39.535Z,86.40
2018-02-15T08:44:05.493Z,84.30
2018-02-15T08:46:31.468Z,85.10
2018-02-15T08:48:57.459Z,84.90
2018-02-15T08:51:23.449Z,85.70
2018-02-15T08:53:50.145Z,85.90
2018-02-15T08:56:16.129Z,85.90
2018-02-15T08:58:42.087Z,85.40
2018-02-15T09:01:08.784Z,83.70
2018-02-15T09:03:34.727Z,83.70
2018-02-15T09:06:00.698Z,85.00
2018-02-15T09:08:27.410Z,84.60
2018-02-15T09:10:53.378Z,84.50
2018-02-15T09:13:19.353Z,84.60
2018-02-15T09:15:45.313Z,84.50
2018-02-15T09:18:11.266Z,85.10
2018-02-15T09:20:37.223Z,84.10
2018-02-15T09:23:03.187Z,84.50
2018-02-15T09:25:29.146Z,84.30
2018-02-15T09:27:55.127Z,86.60
2018-02-15T09:30:21.095Z,84.40
2018-02-15T09:32:47.067Z,85.90
2018-02-15T09:35:13.025Z,83.80
2018-02-15T09:37:38.979Z,83.70
2018-02-15T09:40:05.681Z,84.30
2018-02-15T09:42:31.655Z,84.30
2018-02-15T09:44:57.619Z,82.50
2018-02-15T09:47:23.584Z,83.00
2018-02-15T09:49:49.586Z,83.60
2018-02-15T09:52:15.559Z,83.60
2018-02-15T09:54:41.540Z,83.40
2018-02-15T09:57:07.503Z,83.40
2018-02-15T09:59:33.464Z,83.20
2018-02-15T10:01:59.459Z,83.60
2018-02-15T10:04:25.478Z,83.10
2018-02-15T10:06:52.227Z,83.60
2018-02-15T10:09:18.930Z,84.50
2018-02-15T10:11:44.900Z,84.10
2018-02-15T10:14:10.857Z,84.50
2018-02-15T10:16:37.558Z,84.00
2018-02-15T10:19:03.520Z,84.00
2018-02-15T10:21:29.471Z,85.40
2018-02-15T10:23:55.479Z,83.40
2018-02-15T10:26:21.457Z,83.40
2018-02-15T10:28:48.150Z,83.50
2018-02-15T10:31:14.113Z,83.50
2018-02-15T10:33:40.072Z,84.10
2018-02-15T10:36:06.021Z,85.20
2018-02-15T10:38:32.749Z,83.70
2018-02-15T10:40:58.703Z,83.50
2018-02-15T10:43:24.697Z,81.80
2018-02-15T10:45:51.400Z,81.50
2018-02-15T10:48:17.371Z,81.50
2018-02-15T10:50:43.389Z,81.40
2018-02-15T10:53:09.377Z,82.30
2018-02-15T10:55:35.328Z,82.10
2018-02-15T10:58:02.043Z,84.00
2018-02-15T11:00:34.216Z,83.90
2018-02-15T11:03:06.308Z,81.70
2018-02-15T11:05:32.290Z,82.60
2018-02-15T11:07:58.267Z,82.90
2018-02-15T11:10:24.232Z,82.30
2018-02-15T11:12:50.943Z,81.90
2018-02-15T11:15:16.911Z,81.90
2018-02-15T11:17:42.926Z,81.90
2018-02-15T11:20:08.880Z,82.50
2018-02-15T11:22:34.875Z,85.10
2018-02-15T11:25:00.842Z,83.40
2018-02-15T11:27:26.818Z,82.40
2018-02-15T11:29:53.646Z,85.50
2018-02-15T11:32:20.365Z,85.20
2018-02-15T11:34:46.315Z,85.20
2018-02-15T11:37:12.271Z,82.40
2018-02-15T11:39:38.303Z,82.20
2018-02-15T11:42:04.288Z,81.50
2018-02-15T11:44:30.267Z,81.60
2018-02-15T11:46:56.263Z,80.50
2018-02-15T11:49:22.223Z,81.80
2018-02-15T11:51:48.192Z,83.40
2018-02-15T11:54:14.895Z,85.40
2018-02-15T11:56:40.885Z,85.40
2018-02-15T11:59:06.876Z,86.10
2018-02-15T12:01:32.838Z,86.20
2018-02-15T12:03:59.580Z,85.30
2018-02-15T12:06:25.560Z,85.30
2018-02-15T12:08:51.561Z,83.50
2018-02-15T12:11:17.510Z,85.30
2018-02-15T12:13:44.268Z,81.00
2018-02-15T12:16:10.986Z,81.80
2018-02-15T12:18:37.038Z,81.80
2018-02-15T12:21:03.104Z,80.90
2018-02-15T12:23:29.843Z,82.70
2018-02-15T12:25:56.629Z,79.70
2018-02-15T12:28:22.624Z,79.70
2018-02-15T12:30:50.074Z,80.60
2018-02-15T12:33:16.060Z,80.60
2018-02-15T12:35:42.075Z,80.70
2018-02-15T12:38:08.807Z,83.20
2018-02-15T12:40:35.496Z,80.50
2018-02-15T12:43:01.520Z,80.40
2018-02-15T12:45:28.266Z,83.10
2018-02-15T12:47:54.286Z,83.10
2018-02-15T12:50:20.236Z,84.60
2018-02-15T12:52:46.240Z,80.50
2018-02-15T12:55:12.168Z,83.90
2018-02-15T12:57:38.146Z,84.00
2018-02-15T13:00:04.195Z,82.10
2018-02-15T13:02:30.907Z,84.40
2018-02-15T13:04:56.979Z,84.40
2018-02-15T13:07:23.730Z,81.90
2018-02-15T13:09:50.441Z,82.60
2018-02-15T13:12:28.916Z,82.60
2018-02-15T13:14:55.722Z,82.30
2018-02-15T13:17:21.753Z,82.20
2018-02-15T13:20:00.283Z,82.30
2018-02-15T13:22:38.854Z,83.50
2018-02-15T13:25:04.815Z,83.80
2018-02-15T13:27:44.091Z,80.50
2018-02-15T13:30:10.074Z,80.50
2018-02-15T13:32:36.085Z,82.20
2018-02-15T13:35:02.071Z,81.00
2018-02-15T13:37:28.825Z,84.40
2018-02-15T13:39:55.551Z,84.50
2018-02-15T13:42:21.539Z,84.40
2018-02-15T13:44:47.510Z,80.90
2018-02-15T13:47:13.466Z,82.30
2018-02-15T13:49:40.163Z,83.10
2018-02-15T13:52:06.175Z,83.00
2018-02-15T13:54:32.141Z,83.80
2018-02-15T13:56:58.221Z,82.20
2018-02-15T13:59:24.205Z,81.70
2018-02-15T14:01:50.154Z,81.90
2018-02-15T14:04:16.116Z,81.90
2018-02-15T14:06:42.147Z,81.10
2018-02-15T14:09:08.102Z,80.80
2018-02-15T14:11:34.042Z,81.30
2018-02-15T14:14:00.083Z,83.50
2018-02-15T14:16:26.799Z,83.70
2018-02-15T14:18:52.847Z,83.70
2018-02-15T14:21:18.819Z,83.10
2018-02-15T14:23:44.796Z,83.80
2018-02-15T14:26:10.759Z,82.60
2018-02-15T14:28:36.722Z,85.80
2018-02-15T14:31:03.438Z,86.50
2018-02-15T14:33:29.443Z,86.50
2018-02-15T14:35:55.401Z,86.40
2018-02-15T14:38:22.150Z,83.80
2018-02-15T14:40:48.128Z,83.70
2018-02-15T14:43:14.881Z,83.80
2018-02-15T14:45:41.567Z,86.90
2018-02-15T14:48:07.535Z,86.90
2018-02-15T14:50:33.519Z,88.50
2018-02-15T14:52:59.554Z,87.80
2018-02-15T14:55:25.563Z,85.50
2018-02-15T14:57:51.572Z,84.50
2018-02-15T15:00:17.551Z,84.60
2018-02-15T15:02:44.282Z,83.40
2018-02-15T15:05:10.258Z,83.40
2018-02-15T15:07:36.266Z,85.20
2018-02-15T15:10:02.974Z,88.10
2018-02-15T15:12:29.035Z,88.10
2018-02-15T15:14:55.067Z,87.20
2018-02-15T15:17:21.067Z,85.40
2018-02-15T15:19:47.071Z,84.90
2018-02-15T15:22:13.782Z,85.90
2018-02-15T15:24:39.759Z,85.90
2018-02-15T15:27:06.472Z,86.70
2018-02-15T15:29:32.540Z,86.70
2018-02-15T15:31:58.543Z,86.40
2018-02-15T15:34:24.606Z,88.10
2018-02-15T15:36:51.298Z,87.90
2018-02-15T15:39:17.291Z,87.90
2018-02-15T15:41:44.053Z,89.70
2018-02-15T15:44:10.790Z,89.80
2018-02-15T15:46:37.592Z,90.40
2018-02-15T15:49:03.543Z,90.10
2018-02-15T15:51:29.543Z,90.10
2018-02-15T15:53:56.306Z,89.20
2018-02-15T15:56:22.338Z,89.10
2018-02-15T15:58:49.035Z,90.30
2018-02-15T16:01:14.995Z,90.20
2018-02-15T16:03:40.962Z,90.20
2018-02-15T16:06:06.951Z,90.20
2018-02-15T16:08:33.078Z,90.10
2018-02-15T16:10:59.090Z,90.20
2018-02-15T16:13:25.050Z,90.20
2018-02-15T16:15:51.003Z,90.20
2018-02-15T16:18:16.997Z,90.20
2018-02-15T16:20:42.998Z,90.10
2018-02-15T16:23:09.748Z,90.60
2018-02-15T16:25:35.837Z,90.60
2018-02-15T16:28:01.817Z,91.00
2018-02-15T16:30:27.873Z,90.80
2018-02-15T16:32:53.835Z,91.30
2018-02-15T16:35:19.831Z,91.00
2018-02-15T16:37:45.783Z,90.90
2018-02-15T16:40:11.767Z,91.00
2018-02-15T16:42:37.777Z,91.30
2018-02-15T16:45:03.755Z,91.20
2018-02-15T16:47:29.729Z,91.10
2018-02-15T16:49:55.727Z,90.80
2018-02-15T16:52:23.223Z,91.10
2018-02-15T16:54:49.923Z,91.10
2018-02-15T16:57:15.887Z,91.10
2018-02-15T16:59:41.874Z,91.20
2018-02-15T17:02:07.826Z,91.10
2018-02-15T17:04:33.805Z,91.40
2018-02-15T17:07:01.338Z,90.30
2018-02-15T17:09:27.379Z,90.30
2018-02-15T17:11:53.577Z,90.50
2018-02-15T17:14:19.659Z,90.20
2018-02-15T17:16:45.658Z,90.30
2018-02-15T17:19:11.655Z,90.60
2018-02-15T17:21:38.385Z,90.90
2018-02-15T17:24:04.370Z,90.90
2018-02-15T17:26:31.075Z,90.10
2018-02-15T17:28:57.112Z,90.10
2018-02-15T17:31:23.092Z,89.80
2018-02-15T17:33:49.807Z,90.60
2018-02-15T17:36:15.772Z,90.50
2018-02-15T17:38:42.521Z,90.80
2018-02-15T17:41:08.445Z,90.80
2018-02-15T17:43:34.464Z,90.70
2018-02-15T17:46:00.495Z,90.80
2018-02-15T17:48:26.552Z,90.70
2018-02-15T17:50:53.413Z,90.30
2018-02-15T17:53:19.375Z,90.30
2018-02-15T17:55:45.330Z,90.60
2018-02-15T17:58:18.328Z,91.00
2018-02-15T18:00:44.299Z,90.80
2018-02-15T18:03:10.334Z,90.80
2018-02-15T18:05:36.333Z,90.70
2018-02-15T18:08:02.289Z,90.50
2018-02-15T18:10:28.323Z,90.40
2018-02-15T18:12:54.344Z,90.30
2018-02-15T18:15:20.315Z,90.60
2018-02-15T18:17:47.761Z,90.80
2018-02-15T18:20:13.716Z,90.70
2018-02-15T18:22:40.439Z,90.90
2018-02-15T18:25:06.412Z,90.90
2018-02-15T18:27:32.363Z,91.00
2018-02-15T18:29:59.085Z,90.80
2018-02-15T18:32:25.126Z,90.80
2018-02-15T18:34:51.078Z,90.90
2018-02-15T18:37:17.041Z,90.90
2018-02-15T18:39:44.924Z,90.90
2018-02-15T18:42:10.955Z,90.90
2018-02-15T18:44:37.698Z,91.00
2018-02-15T18:47:04.407Z,90.70
2018-02-15T18:49:31.932Z,90.70
2018-02-15T18:51:57.938Z,90.90
2018-02-15T18:54:24.713Z,90.90
2018-02-15T18:56:50.688Z,90.90
2018-02-15T18:59:16.683Z,91.10
2018-02-15T19:01:42.644Z,91.10
2018-02-15T19:04:08.626Z,91.10
2018-02-15T19:06:34.582Z,90.80
2018-02-15T19:09:01.381Z,91.20
2018-02-15T19:11:27.394Z,91.50
2018-02-15T19:13:53.683Z,91.30
2018-02-15T19:16:19.670Z,90.90
2018-02-15T19:18:45.647Z,91.30
2018-02-15T19:21:12.375Z,90.80
2018-02-15T19:23:38.360Z,90.70
2018-02-15T19:26:05.076Z,90.60
2018-02-15T19:28:31.151Z,90.60
2018-02-15T19:30:57.924Z,91.00
2018-02-15T19:33:23.950Z,90.90
2018-02-15T19:35:49.978Z,91.00
2018-02-15T19:38:16.705Z,90.80
2018-02-15T19:40:43.418Z,90.90
2018-02-15T19:43:09.368Z,90.90
2018-02-15T19:45:35.346Z,90.80
2018-02-15T19:48:02.094Z,90.80
2018-02-15T19:50:28.854Z,91.20
2018-02-15T19:52:55.583Z,91.30
2018-02-15T19:55:21.639Z,91.60
2018-02-15T19:57:47.628Z,91.30
2018-02-15T20:00:13.620Z,91.30
2018-02-15T20:02:40.340Z,91.30
2018-02-15T20:05:06.331Z,91.30
2018-02-15T20:07:32.318Z,90.80
2018-02-15T20:09:58.347Z,90.90
2018-02-15T20:12:24.359Z,91.00
2018-02-15T20:14:50.331Z,90.80
2018-02-15T20:17:16.303Z,90.80
2018-02-15T20:19:48.362Z,90.90
2018-02-15T20:22:15.094Z,91.10
2018-02-15T20:24:41.072Z,91.00
2018-02-15T20:27:13.201Z,91.20
2018-02-15T20:29:39.190Z,91.10
2018-02-15T20:32:05.190Z,91.10
2018-02-15T20:34:31.227Z,91.30
2018-02-15T20:36:57.256Z,91.20
2018-02-15T20:42:27.358Z,91.20
2018-02-15T20:44:54.114Z,91.20
2018-02-15T20:47:20.143Z,91.20
2018-02-15T20:49:53.015Z,90.90
2018-02-15T20:52:25.110Z,90.90
2018-02-15T20:54:58.009Z,90.90
2018-02-15T20:57:24.838Z,91.30
2018-02-15T20:59:50.810Z,91.30
2018-02-15T21:02:16.809Z,91.30
2018-02-15T21:04:42.778Z,91.30
2018-02-15T21:07:09.472Z,91.00
2018-02-15T21:09:35.428Z,91.00
2018-02-15T21:12:01.401Z,91.00
2018-02-15T21:14:28.197Z,90.90
2018-02-15T21:16:54.265Z,90.90
2018-02-15T21:19:21.026Z,90.70
2018-02-15T21:21:47.041Z,90.70
2018-02-15T21:24:13.000Z,91.30
2018-02-15T21:26:39.731Z,91.20
2018-02-15T21:29:05.695Z,91.20
2018-02-15T21:31:32.419Z,91.20
2018-02-15T21:33:58.428Z,91.10
2018-02-15T21:36:24.495Z,91.20
2018-02-15T21:38:50.451Z,91.10
2018-02-15T21:41:17.175Z,91.40
2018-02-15T21:43:43.150Z,91.40
2018-02-15T21:46:09.873Z,91.50
2018-02-15T21:48:35.826Z,91.40
2018-02-15T21:51:01.807Z,91.20
2018-02-15T21:53:27.791Z,91.10
2018-02-15T21:55:54.570Z,91.00
2018-02-15T21:58:20.521Z,91.00
2018-02-15T22:00:46.482Z,91.00
2018-02-15T22:03:12.446Z,91.10
2018-02-15T22:05:38.415Z,91.00
2018-02-15T22:08:04.389Z,91.10
2018-02-15T22:10:30.355Z,91.00
2018-02-15T22:12:57.063Z,90.90
2018-02-15T22:15:23.068Z,90.80
2018-02-15T22:17:49.031Z,90.70
2018-02-15T22:20:15.006Z,90.90
2018-02-15T22:22:41.006Z,91.00
2018-02-15T22:25:06.960Z,91.00
2018-02-15T22:27:32.932Z,90.80
2018-02-15T22:29:59.662Z,90.60
2018-02-15T22:32:25.659Z,90.60
2018-02-15T22:34:51.651Z,90.70
2018-02-15T22:37:18.375Z,90.90
2018-02-15T22:39:44.358Z,90.90
2018-02-15T22:42:10.323Z,91.00
2018-02-15T22:44:36.300Z,91.00
2018-02-15T22:47:03.765Z,91.30
2018-02-15T22:49:29.775Z,91.30
2018-02-15T22:51:55.809Z,91.10
2018-02-15T22:54:21.821Z,90.60
2018-02-15T22:56:47.770Z,90.30
2018-02-15T22:59:13.751Z,90.40
2018-02-15T23:01:40.478Z,90.60
2018-02-15T23:04:06.475Z,90.80
2018-02-15T23:06:32.459Z,90.80
2018-02-15T23:08:58.493Z,90.60
2018-02-15T23:11:24.491Z,90.50
2018-02-15T23:13:50.485Z,90.50
2018-02-15T23:16:17.198Z,90.40
2018-02-15T23:18:43.154Z,90.60
2018-02-15T23:21:09.111Z,90.80
2018-02-15T23:23:35.854Z,91.40
2018-02-15T23:26:01.817Z,91.20
2018-02-15T23:28:28.555Z,91.50
2018-02-15T23:30:54.537Z,91.50
2018-02-15T23:33:20.495Z,91.70
2018-02-15T23:35:46.463Z,91.50
2018-02-15T23:38:13.190Z,91.70
2018-02-15T23:40:39.167Z,91.70
2018-02-15T23:43:05.127Z,91.80
2018-02-15T23:45:31.100Z,91.80
2018-02-15T23:47:57.127Z,91.80
2018-02-15T23:50:23.134Z,91.80
2018-02-15T23:52:49.111Z,91.80
2018-02-15T23:55:15.095Z,91.90
2018-02-15T23:57:41.087Z,91.90
